Time;durP1;ratioP1;P1;durP2;ratioP2;P2;SDS_P1;SDS_P2;PMS_P1;PMS_P2;Temp;Humidity;BMP_temperature;BMP_pressure;BME280_temperature;BME280_humidity;BME280_pressure;Samples;Min_cycle;Max_cycle;Signal;HPM_P1;HPM_P2
2020/12/09 00:00:10;;;;;;;132.77;39.83;;;;;;;-8.09;69.05;101353.54;1703315;84;21196;-67
2020/12/09 00:02:41;;;;;;;137.10;34.87;;;;;;;-8.09;69.01;101351.38;1703378;84;22263;-67
2020/12/09 00:05:11;;;;;;;47.23;16.27;;;;;;;-8.09;68.90;101338.61;1703152;84;21215;-67
2020/12/09 00:07:58;;;;;;;51.23;17.97;;;;;;;-8.07;68.71;101350.67;1719041;82;21202;-69
2020/12/09 00:10:26;;;;;;;38.80;16.13;;;;;;;-8.03;68.51;101344.05;1690410;84;21671;-68
2020/12/09 00:12:54;;;;;;;48.40;16.53;;;;;;;-7.99;68.32;101342.16;1697643;84;21215;-67
2020/12/09 00:15:24;;;;;;;50.97;17.43;;;;;;;-7.94;68.15;101338.17;1697632;84;21170;-69
2020/12/09 00:17:52;;;;;;;44.40;15.27;;;;;;;-7.89;68.14;101338.07;1697910;84;21566;-69
2020/12/09 00:20:20;;;;;;;44.50;17.00;;;;;;;-7.86;67.91;101335.67;1697721;84;21642;-68
2020/12/09 00:22:48;;;;;;;30.50;13.17;;;;;;;-7.82;67.67;101335.06;1697686;84;21276;-67
2020/12/09 00:25:17;;;;;;;37.27;14.37;;;;;;;-7.78;68.00;101329.70;1697383;84;21150;-68
2020/12/09 00:27:45;;;;;;;43.00;16.50;;;;;;;-7.74;67.44;101332.92;1697687;84;21221;-66
2020/12/09 00:30:12;;;;;;;46.00;19.30;;;;;;;-7.71;67.20;101325.81;1694861;84;21203;-68
2020/12/09 00:32:41;;;;;;;37.93;16.07;;;;;;;-7.67;67.03;101332.86;1669610;85;21669;-66
2020/12/09 00:35:09;;;;;;;39.73;14.17;;;;;;;-7.63;66.67;101329.69;1669317;85;21395;-68
2020/12/09 00:37:37;;;;;;;40.03;16.53;;;;;;;-7.58;66.46;101319.30;1669551;85;21845;-67
2020/12/09 00:40:05;;;;;;;37.43;14.57;;;;;;;-7.54;66.51;101326.36;1669450;85;21147;-68
2020/12/09 00:42:34;;;;;;;38.17;15.80;;;;;;;-7.49;66.15;101320.22;1669434;85;21183;-67
2020/12/09 00:45:03;;;;;;;37.40;15.67;;;;;;;-7.45;66.36;101319.19;1669559;85;21178;-67
2020/12/09 00:47:32;;;;;;;41.50;16.40;;;;;;;-7.41;66.08;101312.53;1669720;85;22320;-68
2020/12/09 00:52:47;;;;;;;39.57;14.87;;;;;;;-7.36;66.01;101310.23;1669572;84;21481;-66
2020/12/09 00:55:16;;;;;;;35.03;14.40;;;;;;;-7.34;66.23;101303.52;1669492;85;21214;-68
2020/12/09 00:57:46;;;;;;;33.13;12.50;;;;;;;-7.33;66.19;101310.42;1669502;84;21325;-65
2020/12/09 01:00:16;;;;;;;41.70;16.32;;;;;;;-7.31;65.88;101306.27;1669559;85;21372;-67
2020/12/09 01:02:45;;;;;;;30.40;12.90;;;;;;;-7.30;66.17;101308.01;1669665;85;21194;-66
2020/12/09 01:05:15;;;;;;;34.43;12.73;;;;;;;-7.26;65.91;101304.83;1669361;85;21187;-66
2020/12/09 01:07:43;;;;;;;31.77;12.87;;;;;;;-7.24;65.62;101303.23;1673806;84;21213;-65
2020/12/09 01:10:11;;;;;;;38.27;14.07;;;;;;;-7.20;65.82;101302.57;1699147;84;21599;-68
2020/12/09 01:12:42;;;;;;;33.40;14.57;;;;;;;-7.16;66.03;101304.50;1679993;85;21381;-66
2020/12/09 01:15:10;;;;;;;36.80;14.37;;;;;;;-7.14;66.07;101298.19;1691710;84;21200;-67
2020/12/09 01:17:38;;;;;;;36.93;15.27;;;;;;;-7.10;65.66;101298.44;1679864;85;21656;-64
2020/12/09 01:20:06;;;;;;;36.20;14.60;;;;;;;-7.07;65.92;101295.16;1691729;84;21183;-67
2020/12/09 01:22:34;;;;;;;32.63;12.97;;;;;;;-7.05;65.71;101290.59;1680024;85;21672;-67
2020/12/09 01:25:04;;;;;;;39.38;14.18;;;;;;;-7.02;65.84;101289.46;1692058;84;21282;-64
2020/12/09 01:27:32;;;;;;;38.67;15.77;;;;;;;-6.99;65.84;101290.05;1691748;84;21691;-66
2020/12/09 01:30:00;;;;;;;46.60;16.43;;;;;;;-6.93;65.88;101286.91;1679952;85;21222;-67
2020/12/09 01:32:28;;;;;;;41.90;14.73;;;;;;;-6.92;65.92;101283.54;1691687;84;21679;-71
2020/12/09 01:34:56;;;;;;;26.50;12.67;;;;;;;-6.87;66.00;101287.24;1680154;85;21173;-70
2020/12/09 01:37:25;;;;;;;31.47;12.57;;;;;;;-6.85;65.60;101279.24;1691960;84;22166;-69
2020/12/09 01:39:53;;;;;;;36.77;13.80;;;;;;;-6.80;66.02;101281.63;1680071;85;21185;-69
2020/12/09 01:42:20;;;;;;;36.67;14.07;;;;;;;-6.78;66.27;101274.91;1691893;84;21211;-70
2020/12/09 01:44:48;;;;;;;34.33;13.63;;;;;;;-6.73;66.27;101278.98;1679975;85;21170;-70
2020/12/09 01:47:17;;;;;;;28.27;11.13;;;;;;;-6.70;66.13;101281.28;1691821;84;21193;-70
2020/12/09 01:49:44;;;;;;;28.37;12.13;;;;;;;-6.66;66.14;101283.20;1679857;85;21394;-68
2020/12/09 01:52:12;;;;;;;29.63;12.33;;;;;;;-6.62;66.18;101281.29;1691752;84;21192;-69
2020/12/09 01:54:40;;;;;;;29.87;13.37;;;;;;;-6.57;66.36;101286.23;1691759;84;21212;-69
2020/12/09 01:57:14;;;;;;;29.77;12.27;;;;;;;-6.53;66.34;101284.72;1679867;85;21260;-70
2020/12/09 01:59:43;;;;;;;32.70;13.13;;;;;;;-6.47;66.49;101286.70;1691892;84;21670;-70
2020/12/09 02:02:11;;;;;;;27.97;12.10;;;;;;;-6.45;66.34;101285.09;1690497;84;21386;-68
2020/12/09 02:04:41;;;;;;;38.53;13.93;;;;;;;-6.39;66.34;101285.41;1691920;84;21175;-67
2020/12/09 02:07:09;;;;;;;26.77;11.53;;;;;;;-6.36;66.53;101281.30;1670867;84;21244;-67
2020/12/09 02:09:37;;;;;;;33.63;13.57;;;;;;;-6.31;66.59;101278.09;1690948;84;21168;-68
2020/12/09 02:12:06;;;;;;;27.60;11.57;;;;;;;-6.28;66.90;101276.58;1691143;84;21636;-68
2020/12/09 02:14:35;;;;;;;29.23;12.82;;;;;;;-6.25;66.78;101279.28;1672123;83;21427;-68
2020/12/09 02:17:02;;;;;;;28.37;11.23;;;;;;;-6.20;66.77;101281.66;1679497;84;21667;-68
2020/12/09 02:19:31;;;;;;;27.63;11.20;;;;;;;-6.16;66.95;101286.14;1717599;83;21161;-68
2020/12/09 02:22:11;;;;;;;25.27;10.87;;;;;;;-6.12;67.22;101284.21;1689537;84;21241;-68
2020/12/09 02:24:39;;;;;;;30.60;11.20;;;;;;;-6.08;66.84;101289.48;1689555;84;21576;-68
2020/12/09 02:27:08;;;;;;;26.90;12.53;;;;;;;-6.06;66.62;101286.18;1689222;84;21241;-67
2020/12/09 02:29:36;;;;;;;30.97;12.27;;;;;;;-6.05;66.77;101277.70;1689473;84;21197;-68
2020/12/09 02:32:04;;;;;;;31.97;12.97;;;;;;;-6.02;66.62;101289.79;1689484;84;21192;-68
2020/12/09 02:34:32;;;;;;;24.10;11.60;;;;;;;-5.97;67.07;101287.03;1689533;84;21684;-68
2020/12/09 02:37:00;;;;;;;21.03;8.77;;;;;;;-5.93;66.97;101291.48;1689580;84;21728;-69
2020/12/09 02:39:34;;;;;;;21.83;7.80;;;;;;;-5.91;66.78;101286.02;1673778;84;21259;-68
2020/12/09 02:42:02;;;;;;;28.77;11.57;;;;;;;-5.88;66.56;101287.85;1671510;85;21449;-68
2020/12/09 02:44:34;;;;;;;32.33;12.23;;;;;;;-5.85;66.64;101285.02;1671598;85;21646;-68
2020/12/09 02:47:02;;;;;;;25.43;11.00;;;;;;;-5.82;66.45;101281.70;1671532;85;21163;-69
2020/12/09 02:49:30;;;;;;;26.47;11.50;;;;;;;-5.81;66.63;101279.23;1671621;85;21156;-69
2020/12/09 02:51:58;;;;;;;32.90;11.13;;;;;;;-5.78;66.48;101285.78;1671692;85;22339;-69
2020/12/09 02:54:26;;;;;;;27.47;10.97;;;;;;;-5.76;66.40;101290.58;1671642;85;21180;-69
2020/12/09 02:56:54;;;;;;;39.17;13.50;;;;;;;-5.74;66.32;101290.25;1671700;85;21657;-69
2020/12/09 02:59:22;;;;;;;29.07;11.30;;;;;;;-5.73;66.64;101285.61;1671602;85;21736;-68
2020/12/09 03:01:50;;;;;;;24.17;9.80;;;;;;;-5.70;66.62;101279.75;1671788;85;22127;-68
2020/12/09 03:04:18;;;;;;;31.00;11.27;;;;;;;-5.70;66.29;101284.47;1671608;85;21392;-68
2020/12/09 03:06:46;;;;;;;37.47;13.07;;;;;;;-5.70;66.43;101280.62;1671408;85;21187;-67
2020/12/09 03:09:14;;;;;;;25.00;10.90;;;;;;;-5.64;66.79;101285.55;1677181;85;21194;-67
2020/12/09 03:11:42;;;;;;;35.57;12.80;;;;;;;-5.63;66.32;101282.20;1687512;85;21203;-67
2020/12/09 03:14:10;;;;;;;37.67;14.33;;;;;;;-5.62;66.43;101282.66;1687524;85;21642;-68
2020/12/09 03:16:38;;;;;;;28.23;10.90;;;;;;;-5.59;66.73;101286.64;1687607;85;21410;-68
2020/12/09 03:19:05;;;;;;;40.10;14.40;;;;;;;-5.57;66.74;101291.45;1687451;85;21373;-68
2020/12/09 03:21:33;;;;;;;29.50;11.90;;;;;;;-5.55;66.47;101288.55;1687439;85;21167;-68
2020/12/09 03:24:02;;;;;;;30.60;11.20;;;;;;;-5.53;66.54;101297.20;1687544;85;21190;-68
2020/12/09 03:26:30;;;;;;;24.03;10.60;;;;;;;-5.50;66.54;101299.91;1687636;85;21187;-68
2020/12/09 03:29:08;;;;;;;28.47;11.70;;;;;;;-5.48;66.02;101298.30;1687757;84;22280;-68
2020/12/09 03:31:36;;;;;;;24.60;9.93;;;;;;;-5.48;66.21;101304.30;1659818;84;21648;-68
2020/12/09 03:34:04;;;;;;;27.10;12.53;;;;;;;-5.44;65.92;101305.34;1639290;87;21174;-68
2020/12/09 03:36:32;;;;;;;34.50;11.43;;;;;;;-5.42;66.12;101296.02;1639195;87;21641;-67
2020/12/09 03:38:59;;;;;;;24.03;9.47;;;;;;;-5.42;66.00;101298.59;1639191;87;21173;-69
2020/12/09 03:41:27;;;;;;;25.13;12.03;;;;;;;-5.41;65.80;101295.20;1639100;87;21225;-69
2020/12/09 03:43:55;;;;;;;21.70;10.13;;;;;;;-5.41;65.73;101293.91;1669407;85;21605;-68
2020/12/09 03:46:23;;;;;;;25.63;11.13;;;;;;;-5.39;66.15;101290.14;1669389;85;21230;-67
2020/12/09 03:48:50;;;;;;;23.97;9.50;;;;;;;-5.38;66.01;101292.80;1669569;85;21680;-69
2020/12/09 03:51:19;;;;;;;37.63;12.33;;;;;;;-5.34;66.02;101293.38;1669614;85;21158;-68
2020/12/09 03:53:47;;;;;;;24.30;10.87;;;;;;;-5.35;65.56;101285.22;1669560;84;21325;-69
2020/12/09 03:56:14;;;;;;;28.23;10.43;;;;;;;-5.33;65.78;101296.86;1669384;85;21645;-67
2020/12/09 03:58:43;;;;;;;23.37;10.13;;;;;;;-5.34;65.60;101294.66;1669525;85;22170;-68
2020/12/09 04:01:10;;;;;;;30.47;13.13;;;;;;;-5.35;65.89;101300.63;1669496;84;21246;-68
2020/12/09 04:03:38;;;;;;;26.53;11.90;;;;;;;-5.38;65.86;101292.80;1669544;85;21233;-68
2020/12/09 04:06:07;;;;;;;30.53;11.70;;;;;;;-5.38;65.76;101295.36;1669280;85;21267;-69
2020/12/09 04:08:35;;;;;;;27.77;11.67;;;;;;;-5.38;65.92;101295.73;1679305;84;21206;-69
2020/12/09 04:11:02;;;;;;;32.10;12.97;;;;;;;-5.37;66.21;101290.69;1689761;84;21214;-70
2020/12/09 04:13:30;;;;;;;26.47;11.57;;;;;;;-5.37;66.51;101291.97;1689833;84;21202;-68
2020/12/09 04:15:59;;;;;;;26.47;11.23;;;;;;;-5.35;66.72;101286.91;1689889;84;21191;-69
2020/12/09 04:18:26;;;;;;;28.70;12.67;;;;;;;-5.39;66.33;101283.31;1689733;84;21465;-68
2020/12/09 04:20:54;;;;;;;28.97;12.37;;;;;;;-5.39;66.56;101278.17;1689902;84;21681;-68
2020/12/09 04:23:22;;;;;;;31.33;11.37;;;;;;;-5.39;66.99;101277.30;1689675;84;21254;-68
2020/12/09 04:25:50;;;;;;;28.53;13.47;;;;;;;-5.38;67.04;101272.63;1689935;84;21187;-68
2020/12/09 04:28:18;;;;;;;26.43;12.30;;;;;;;-5.35;67.42;101269.81;1689725;84;21246;-68
2020/12/09 04:30:45;;;;;;;28.30;12.13;;;;;;;-5.34;67.44;101274.13;1689800;84;21853;-65
2020/12/09 04:33:14;;;;;;;35.40;12.23;;;;;;;-5.35;67.11;101276.23;1689689;84;21194;-67
2020/12/09 04:35:42;;;;;;;22.03;10.27;;;;;;;-5.34;67.42;101275.41;1689838;84;22181;-68
2020/12/09 04:38:11;;;;;;;30.70;12.67;;;;;;;-5.33;67.57;101277.59;1689773;84;21206;-67
2020/12/09 04:40:39;;;;;;;27.40;10.57;;;;;;;-5.34;67.66;101281.83;1689974;84;21139;-68
2020/12/09 04:43:07;;;;;;;25.03;10.97;;;;;;;-5.33;67.98;101286.17;1690073;84;22286;-67
2020/12/09 04:45:35;;;;;;;30.60;13.03;;;;;;;-5.34;67.87;101291.23;1690083;84;21598;-68
2020/12/09 04:48:11;;;;;;;47.50;16.47;;;;;;;-5.35;68.08;101293.34;1689843;84;21190;-65
2020/12/09 04:51:13;;;;;;;37.03;13.40;;;;;;;-5.37;68.10;101299.67;1717250;82;21190;-69
2020/12/09 04:53:43;;;;;;;36.70;12.50;;;;;;;-5.38;68.26;101300.50;1748129;82;21225;-69
2020/12/09 04:56:11;;;;;;;37.13;12.83;;;;;;;-5.37;68.76;101295.82;1726979;82;21433;-68
2020/12/09 04:58:44;;;;;;;51.50;17.07;;;;;;;-5.37;68.83;101295.82;1691954;83;21696;-69
2020/12/09 05:01:14;;;;;;;28.63;12.57;;;;;;;-5.39;68.71;101300.41;1715923;82;21639;-68
2020/12/09 05:03:51;;;;;;;32.00;13.70;;;;;;;-5.38;68.86;101301.78;1717159;83;21218;-68
2020/12/09 05:06:20;;;;;;;28.77;12.57;;;;;;;-5.37;69.00;101303.52;1717167;83;21594;-69
2020/12/09 05:08:58;;;;;;;29.97;12.40;;;;;;;-5.36;69.02;101300.16;1717788;83;22226;-69
2020/12/09 05:11:27;;;;;;;32.87;13.27;;;;;;;-5.34;68.90;101304.06;1694227;83;21685;-69
2020/12/09 05:13:57;;;;;;;26.23;11.80;;;;;;;-5.34;69.05;101299.80;1718581;83;21204;-69
2020/12/09 05:16:25;;;;;;;32.25;13.50;;;;;;;-5.31;69.20;101303.81;1718747;83;21186;-69
2020/12/09 05:18:59;;;;;;;30.63;12.93;;;;;;;-5.31;69.24;101301.25;1718739;83;21179;-68
2020/12/09 05:21:27;;;;;;;26.93;11.70;;;;;;;-5.28;69.31;101301.79;1718523;83;21214;-68
2020/12/09 05:23:58;;;;;;;30.00;13.53;;;;;;;-5.31;69.47;101301.25;1718591;83;21662;-70
2020/12/09 05:26:31;;;;;;;33.23;12.50;;;;;;;-5.30;69.58;101300.84;1718907;83;21678;-69
2020/12/09 05:29:16;;;;;;;31.20;11.97;;;;;;;-5.32;69.65;101300.75;1718721;83;21207;-69
2020/12/09 05:31:48;;;;;;;34.70;11.47;;;;;;;-5.33;69.79;101293.88;1718780;83;21199;-68
2020/12/09 05:34:31;;;;;;;36.53;13.77;;;;;;;-5.34;69.84;101298.52;1718703;83;21365;-68
2020/12/09 05:37:05;;;;;;;27.57;12.47;;;;;;;-5.33;70.20;101302.86;1718318;83;21194;-68
2020/12/09 05:39:34;;;;;;;61.73;27.27;;;;;;;-5.33;70.21;101309.28;1718505;83;21195;-68
2020/12/09 05:42:17;;;;;;;30.30;13.50;;;;;;;-5.32;70.47;101308.45;1718597;83;21238;-67
2020/12/09 05:44:45;;;;;;;37.10;15.73;;;;;;;-5.30;70.67;101309.41;1718704;83;21143;-68
2020/12/09 05:47:13;;;;;;;47.03;19.33;;;;;;;-5.30;70.54;101316.24;1718525;83;21201;-68
2020/12/09 05:49:42;;;;;;;31.87;13.07;;;;;;;-5.31;70.83;101312.80;1718468;83;21202;-68
2020/12/09 05:52:17;;;;;;;41.07;15.37;;;;;;;-5.29;71.04;101312.47;1718613;83;21167;-68
2020/12/09 05:54:50;;;;;;;61.17;24.53;;;;;;;-5.31;71.22;101315.37;1718524;83;21151;-68
2020/12/09 05:57:21;;;;;;;28.07;13.73;;;;;;;-5.28;71.21;101312.94;1718502;83;21505;-69
2020/12/09 05:59:57;;;;;;;39.87;16.50;;;;;;;-5.21;71.29;101313.23;1888142;76;22591;-68
2020/12/09 06:02:30;;;;;;;57.43;20.70;;;;;;;-5.25;71.50;101316.45;1858833;77;21179;-67
2020/12/09 06:05:00;;;;;;;38.30;15.93;;;;;;;-5.28;71.55;101318.48;1821265;78;22854;-66
2020/12/09 06:07:32;;;;;;;35.10;14.77;;;;;;;-5.27;71.81;101314.71;1812192;78;21199;-70
2020/12/09 06:10:08;;;;;;;32.43;13.40;;;;;;;-5.28;71.78;101315.50;1813831;77;21155;-69
2020/12/09 06:12:55;;;;;;;39.73;16.23;;;;;;;-5.28;72.05;101312.94;1763677;81;21207;-69
2020/12/09 06:15:29;;;;;;;35.77;15.40;;;;;;;-5.32;72.45;101317.45;1773484;79;21610;-70
2020/12/09 06:18:15;;;;;;;38.80;15.77;;;;;;;-5.34;72.86;101315.20;1799569;79;21837;-68
2020/12/09 06:20:46;;;;;;;46.57;17.80;;;;;;;-5.35;73.19;101321.16;1774957;80;21151;-68
2020/12/09 06:23:16;;;;;;;38.67;16.47;;;;;;;-5.34;73.54;101323.32;1764834;81;21473;-69
2020/12/09 06:25:45;;;;;;;42.70;16.87;;;;;;;-5.33;73.76;101321.25;1755374;81;21166;-69
2020/12/09 06:28:17;;;;;;;35.80;16.50;;;;;;;-5.34;73.81;101322.91;1758723;79;21158;-69
2020/12/09 06:30:45;;;;;;;36.00;16.30;;;;;;;-5.34;74.38;101322.04;1806932;79;22331;-69
2020/12/09 06:33:38;;;;;;;34.63;14.73;;;;;;;-5.37;74.63;101321.50;1788739;80;21273;-69
2020/12/09 06:36:26;;;;;;;39.97;16.20;;;;;;;-5.39;74.90;101319.26;1788856;80;22091;-69
2020/12/09 06:39:13;;;;;;;34.00;14.53;;;;;;;-5.38;75.23;101318.47;1788811;80;21204;-68
2020/12/09 06:41:59;;;;;;;35.70;16.63;;;;;;;-5.36;75.44;101325.84;1788976;80;21198;-70
2020/12/09 06:44:31;;;;;;;35.47;14.30;;;;;;;-5.38;76.01;101322.31;1782848;80;21275;-70
2020/12/09 06:47:00;;;;;;;38.40;15.30;;;;;;;-5.37;75.93;101325.77;1788853;80;21127;-69
2020/12/09 06:49:33;;;;;;;40.10;16.00;;;;;;;-5.37;76.14;101322.78;1795758;79;21163;-69
2020/12/09 06:52:05;;;;;;;38.90;16.17;;;;;;;-5.39;76.43;101324.39;1805320;79;21104;-69
2020/12/09 06:54:46;;;;;;;39.60;17.47;;;;;;;-5.38;76.90;101323.60;1798752;79;21650;-69
2020/12/09 06:57:21;;;;;;;43.17;15.00;;;;;;;-5.36;77.04;101327.12;1805364;79;22262;-70
2020/12/09 07:00:16;;;;;;;54.47;20.20;;;;;;;-5.39;77.10;101316.69;1807801;79;21183;-69
2020/12/09 07:02:47;;;;;;;40.97;17.60;;;;;;;-5.41;77.51;101318.30;1739163;82;21140;-68
2020/12/09 07:05:19;;;;;;;41.30;17.80;;;;;;;-5.41;77.96;101319.59;1739066;82;21173;-68
2020/12/09 07:07:50;;;;;;;;;;;;;;;-5.39;78.11;101326.96;1747836;80;21155;-68
2020/12/09 07:10:22;;;;;;;43.58;17.17;;;;;;;-5.35;78.27;101329.28;1767418;81;21370;-70
2020/12/09 07:13:06;;;;;;;41.47;17.60;;;;;;;-5.35;78.59;101326.30;1767346;81;21184;-67
2020/12/09 07:15:41;;;;;;;44.57;17.67;;;;;;;-5.33;78.70;101322.13;1767212;81;21179;-69
2020/12/09 07:18:10;;;;;;;37.23;16.23;;;;;;;-5.30;78.54;101324.81;1767118;81;21218;-69
2020/12/09 07:20:38;;;;;;;42.80;18.03;;;;;;;-5.28;78.68;101329.63;1767322;79;21663;-69
2020/12/09 07:24:05;;;;;;;40.43;18.00;;;;;;;-5.21;79.11;101326.06;1763404;79;58994;-69
2020/12/09 07:26:33;;;;;;;36.33;16.73;;;;;;;-5.24;79.28;101322.95;1716727;82;21201;-70
2020/12/09 07:29:00;;;;;;;36.27;15.53;;;;;;;-5.21;79.34;101327.34;1720664;83;21697;-69
2020/12/09 07:31:28;;;;;;;38.37;17.33;;;;;;;-5.17;79.47;101328.84;1718678;82;21281;-69
2020/12/09 07:34:03;;;;;;;37.33;16.20;;;;;;;-5.15;79.59;101327.64;1714555;82;21220;-69
2020/12/09 07:36:34;;;;;;;37.53;18.43;;;;;;;-5.11;79.62;101325.66;1710971;83;21206;-69
2020/12/09 07:39:04;;;;;;;36.00;15.38;;;;;;;-5.08;79.57;101324.54;1708402;83;21154;-69
2020/12/09 07:41:44;;;;;;;38.17;17.70;;;;;;;-5.06;79.73;101322.52;1711112;83;21392;-69
2020/12/09 07:44:13;;;;;;;49.03;18.98;;;;;;;-5.02;79.73;101325.20;1710987;83;21217;-70
2020/12/09 07:46:43;;;;;;;38.93;17.07;;;;;;;-4.96;79.91;101328.94;1710993;83;21194;-68
2020/12/09 07:49:12;;;;;;;42.05;18.85;;;;;;;-4.90;79.80;101330.50;1662229;83;21197;-69
2020/12/09 07:51:40;;;;;;;44.73;18.60;;;;;;;-4.88;80.11;101327.60;1711093;83;21613;-71
2020/12/09 07:54:08;;;;;;;44.07;22.60;;;;;;;-4.83;79.93;101324.33;1710638;83;21166;-69
2020/12/09 07:56:37;;;;;;;44.80;19.57;;;;;;;-4.82;79.64;101327.39;1711031;83;21146;-70
2020/12/09 07:59:04;;;;;;;44.47;18.87;;;;;;;-4.79;79.90;101328.39;1711069;83;21205;-69
2020/12/09 08:01:33;;;;;;;43.97;17.97;;;;;;;-4.75;79.77;101330.30;1693138;83;21589;-70
2020/12/09 08:04:01;;;;;;;50.10;17.57;;;;;;;-4.73;79.93;101334.22;1658775;85;21227;-70
2020/12/09 08:06:30;;;;;;;47.43;19.13;;;;;;;-4.66;79.69;101343.96;1634236;87;21600;-70
2020/12/09 08:08:58;;;;;;;45.77;17.57;;;;;;;-4.66;79.33;101336.25;1620894;87;21204;-71
2020/12/09 08:11:31;;;;;;;43.60;17.40;;;;;;;-4.61;79.30;101336.03;1586068;89;21244;-71
2020/12/09 08:14:02;;;;;;;35.50;14.47;;;;;;;-4.59;79.33;101327.98;1618383;87;21254;-70
2020/12/09 08:16:30;;;;;;;40.50;18.33;;;;;;;-4.55;78.85;101326.03;1626552;87;21628;-71
2020/12/09 08:19:07;;;;;;;62.40;24.13;;;;;;;-4.54;78.97;101329.06;1628243;87;23391;-68
2020/12/09 08:21:35;;;;;;;43.17;18.60;;;;;;;-4.58;79.04;101331.02;1621313;87;21228;-68
2020/12/09 08:24:12;;;;;;;50.63;21.53;;;;;;;-4.53;79.11;101338.55;1609464;87;21247;-69
2020/12/09 08:26:43;;;;;;;43.37;17.83;;;;;;;-4.50;78.67;101330.09;1603904;88;21223;-68
2020/12/09 08:29:17;;;;;;;41.37;19.03;;;;;;;-4.51;78.37;101331.78;1609729;89;21658;-66
2020/12/09 08:31:45;;;;;;;49.87;19.70;;;;;;;-4.49;78.46;101331.42;1609462;89;21417;-68
2020/12/09 08:34:14;;;;;;;40.07;15.40;;;;;;;-4.49;78.36;101341.70;1584443;89;21194;-67
2020/12/09 08:36:43;;;;;;;40.20;16.87;;;;;;;-4.51;77.53;101335.64;1609101;89;21665;-67
2020/12/09 08:39:11;;;;;;;35.13;13.73;;;;;;;-4.52;77.67;101331.30;1608950;89;21239;-67
2020/12/09 08:41:39;;;;;;;43.43;17.63;;;;;;;-4.50;77.52;101330.95;1609053;89;21235;-68
2020/12/09 08:44:07;;;;;;;57.37;20.03;;;;;;;-4.51;77.60;101333.07;1609030;89;22304;-68
2020/12/09 08:46:35;;;;;;;38.73;15.47;;;;;;;-4.49;77.77;101330.12;1609150;89;21645;-65
2020/12/09 08:49:06;;;;;;;59.23;21.60;;;;;;;-4.48;77.82;101332.32;1609040;89;21162;-68
2020/12/09 08:51:34;;;;;;;42.75;18.77;;;;;;;-4.48;78.06;101331.91;1609275;89;21685;-67
2020/12/09 08:54:05;;;;;;;40.70;16.73;;;;;;;-4.47;77.90;101333.65;1632263;86;21667;-69
2020/12/09 08:56:34;;;;;;;;;;;;;;;-4.49;77.37;101329.26;1637864;87;21235;-69
2020/12/09 08:59:02;;;;;;;31.23;13.13;;;;;;;-4.56;76.99;101328.11;1635885;86;20257;-69
2020/12/09 09:01:38;;;;;;;50.10;20.25;;;;;;;-4.61;76.71;101334.75;1665574;86;21532;-68
2020/12/09 09:04:10;;;;;;;33.77;14.50;;;;;;;-4.61;76.67;101345.03;1665045;86;21191;-69
2020/12/09 09:06:38;;;;;;;36.63;14.47;;;;;;;-4.60;76.54;101341.67;1652355;86;21180;-68
2020/12/09 09:09:07;;;;;;;39.93;14.03;;;;;;;-4.47;76.74;101331.08;1603567;85;25831;-67
2020/12/09 09:11:36;;;;;;;37.23;13.07;;;;;;;-4.40;75.39;101329.66;1627680;88;21208;-69
2020/12/09 09:14:04;;;;;;;38.37;13.97;;;;;;;-4.37;74.88;101330.19;1627412;88;21221;-68
2020/12/09 09:16:32;;;;;;;29.07;12.30;;;;;;;-4.32;75.15;101331.29;1627777;88;21245;-69
2020/12/09 09:19:00;;;;;;;32.10;12.37;;;;;;;-4.23;75.05;101327.81;1627544;87;21185;-68
2020/12/09 09:21:37;;;;;;;29.83;13.00;;;;;;;-4.21;74.18;101319.73;1627714;87;21400;-69
2020/12/09 09:24:05;;;;;;;28.03;12.63;;;;;;;-4.22;73.85;101315.41;1627491;87;21636;-69
2020/12/09 09:26:35;;;;;;;29.23;11.27;;;;;;;-4.20;74.13;101312.50;1652490;85;21678;-69
2020/12/09 09:29:03;;;;;;;29.05;12.07;;;;;;;-4.19;74.17;101314.24;1654099;86;21819;-70
2020/12/09 09:31:31;;;;;;;34.47;13.73;;;;;;;-4.21;74.05;101318.44;1654152;86;21186;-69
2020/12/09 09:33:59;;;;;;;32.03;14.27;;;;;;;-4.20;73.84;101327.94;1654193;86;21312;-69
2020/12/09 09:36:30;;;;;;;27.93;12.40;;;;;;;-4.22;73.96;101320.55;1653714;86;21642;-69
2020/12/09 09:38:59;;;;;;;31.87;13.13;;;;;;;-4.22;73.93;101316.28;1648767;86;21195;-68
2020/12/09 09:41:27;;;;;;;24.70;11.60;;;;;;;-4.22;73.55;101324.41;1654283;86;21187;-69
2020/12/09 09:43:55;;;;;;;28.33;12.57;;;;;;;-4.22;73.98;101316.28;1654299;86;21237;-69
2020/12/09 09:46:24;;;;;;;30.40;10.87;;;;;;;-4.22;74.30;101312.42;1654293;86;21844;-69
2020/12/09 09:48:52;;;;;;;30.83;12.90;;;;;;;-4.24;74.22;101326.04;1654386;86;21238;-66
2020/12/09 09:51:20;;;;;;;33.90;13.63;;;;;;;-4.26;74.45;101312.23;1650575;86;21722;-69
2020/12/09 09:53:50;;;;;;;42.50;15.05;;;;;;;-4.22;74.75;101324.00;1640396;85;21898;-69
2020/12/09 09:56:18;;;;;;;37.27;16.10;;;;;;;-4.15;74.89;101317.42;1652326;86;21235;-69
2020/12/09 09:58:46;;;;;;;36.03;13.70;;;;;;;-4.19;74.91;101307.81;1654198;86;21639;-69
2020/12/09 10:01:15;;;;;;;42.20;15.53;;;;;;;-4.17;74.48;101312.62;1652806;85;21718;-68
2020/12/09 10:03:43;;;;;;;34.20;11.97;;;;;;;-4.18;74.54;101313.45;1636922;86;21206;-68
2020/12/09 10:06:11;;;;;;;33.27;13.17;;;;;;;-4.21;74.89;101313.30;1650380;86;21214;-68
2020/12/09 10:08:40;;;;;;;37.30;12.63;;;;;;;-4.24;74.32;101322.18;1652033;84;43102;-69
2020/12/09 10:11:08;;;;;;;34.93;14.57;;;;;;;-4.27;74.24;101316.92;1653977;86;21356;-69
2020/12/09 10:13:36;;;;;;;38.30;15.10;;;;;;;-4.25;74.93;101306.30;1654024;86;21223;-67
2020/12/09 10:16:04;;;;;;;48.70;18.00;;;;;;;-4.26;75.06;101309.66;1654247;86;21674;-69
2020/12/09 10:18:32;;;;;;;28.87;12.67;;;;;;;-4.21;75.56;101310.72;1663470;85;21588;-69
2020/12/09 10:21:01;;;;;;;43.60;16.40;;;;;;;-4.21;75.24;101308.16;1645976;85;21181;-68
2020/12/09 10:23:29;;;;;;;49.40;18.43;;;;;;;-4.24;75.20;101305.46;1635203;86;22283;-68
2020/12/09 10:25:58;;;;;;;36.00;15.47;;;;;;;-4.17;75.67;101298.88;1659340;85;21146;-69
2020/12/09 10:28:25;;;;;;;51.00;19.60;;;;;;;-4.11;75.16;101294.00;1661767;86;21669;-66
2020/12/09 10:30:53;;;;;;;42.00;16.03;;;;;;;-4.08;74.87;101294.98;1661750;86;21148;-66
2020/12/09 10:33:21;;;;;;;56.03;19.70;;;;;;;-4.07;74.63;101286.47;1657203;85;21223;-68
2020/12/09 10:35:49;;;;;;;36.67;15.33;;;;;;;-4.06;74.59;101311.37;1661853;86;21602;-66
2020/12/09 10:38:17;;;;;;;40.80;16.27;;;;;;;-4.08;74.76;101285.98;1638890;86;21621;-68
2020/12/09 10:40:45;;;;;;;39.20;13.17;;;;;;;-4.06;74.95;101297.22;1661690;86;21202;-67
2020/12/09 10:43:13;;;;;;;35.13;14.43;;;;;;;-4.05;74.60;101300.66;1634710;87;21238;-68
2020/12/09 10:45:43;;;;;;;36.77;15.23;;;;;;;-4.06;74.57;101305.35;1631873;87;21258;-66
2020/12/09 10:48:11;;;;;;;34.83;16.20;;;;;;;-4.08;74.34;101299.27;1634588;87;21375;-68
2020/12/09 10:50:40;;;;;;;37.20;15.20;;;;;;;-4.07;74.49;101297.14;1634714;87;21222;-67
2020/12/09 10:53:08;;;;;;;38.77;14.80;;;;;;;-4.08;74.69;101297.56;1634867;87;22173;-67
2020/12/09 10:55:37;;;;;;;49.03;20.13;;;;;;;-4.08;74.72;101301.42;1638418;86;21640;-67
2020/12/09 10:58:06;;;;;;;42.57;17.03;;;;;;;-4.10;74.66;101290.19;1649025;85;21599;-67
2020/12/09 11:00:37;;;;;;;37.73;17.03;;;;;;;-4.13;74.03;101296.50;1655882;85;21308;-68
2020/12/09 11:03:04;;;;;;;38.10;15.70;;;;;;;-4.14;74.00;101289.61;1685483;85;21182;-66
2020/12/09 11:05:32;;;;;;;26.73;10.93;;;;;;;-4.13;73.90;101291.36;1664823;85;21656;-67
2020/12/09 11:08:00;;;;;;;34.37;11.97;;;;;;;-4.13;73.83;101291.36;1685085;85;21176;-65
2020/12/09 11:10:28;;;;;;;39.83;15.97;;;;;;;-4.15;73.77;101285.27;1661696;85;21186;-68
2020/12/09 11:12:56;;;;;;;35.43;13.93;;;;;;;-4.17;73.76;101293.73;1661855;86;22368;-65
2020/12/09 11:15:25;;;;;;;33.40;14.27;;;;;;;-4.22;74.08;101291.84;1661667;86;21206;-67
2020/12/09 11:17:53;;;;;;;40.73;15.87;;;;;;;-4.19;74.40;101295.36;1661793;85;21234;-66
2020/12/09 11:34:38;;;;;;;31.73;13.57;;;;;;;-3.53;73.29;101277.41;1843481;76;22631;-64
2020/12/09 11:37:06;;;;;;;35.63;16.00;;;;;;;-3.64;72.96;101283.01;1815777;78;21182;-65
2020/12/09 11:39:35;;;;;;;47.17;17.90;;;;;;;-3.70;73.49;101285.36;1790235;79;21189;-67